createdAt,value
2018-06-09T00:04:56.954Z,4.63
2018-06-09T00:09:59.984Z,4.50
2018-06-09T00:15:03.057Z,4.30
2018-06-09T00:20:06.147Z,4.57
2018-06-09T00:25:09.191Z,4.53
2018-06-09T00:30:12.257Z,5.30
2018-06-09T00:35:15.302Z,4.97
2018-06-09T00:40:18.355Z,5.53
2018-06-09T00:45:21.382Z,6.27
2018-06-09T00:50:24.421Z,6.00
2018-06-09T00:55:27.483Z,5.87
2018-06-09T01:00:31.007Z,6.20
2018-06-09T01:05:34.591Z,6.40
2018-06-09T01:10:38.491Z,6.20
2018-06-09T01:15:42.305Z,6.90
2018-06-09T01:20:46.066Z,6.40
2018-06-09T01:25:49.974Z,6.67
2018-06-09T01:30:52.996Z,6.80
2018-06-09T01:35:56.034Z,6.80
2018-06-09T01:40:59.087Z,6.73
2018-06-09T01:46:02.137Z,7.37
2018-06-09T01:51:05.155Z,7.40
2018-06-09T01:56:08.233Z,7.40
2018-06-09T02:01:11.256Z,7.20
2018-06-09T02:06:14.294Z,7.60
2018-06-09T02:11:17.354Z,6.80
2018-06-09T02:16:20.369Z,9.50
2018-06-09T02:21:23.379Z,8.47
2018-06-09T02:26:26.426Z,7.10
2018-06-09T02:31:29.434Z,7.80
2018-06-09T02:36:32.447Z,7.77
2018-06-09T02:41:35.497Z,7.50
2018-06-09T02:46:38.486Z,8.10
2018-06-09T02:51:41.585Z,7.03
2018-06-09T02:56:44.590Z,7.97
2018-06-09T03:01:47.654Z,8.30
2018-06-09T03:06:50.685Z,8.57
2018-06-09T03:11:53.703Z,7.63
2018-06-09T03:16:56.715Z,8.50
2018-06-09T03:21:59.722Z,8.50
2018-06-09T03:27:02.729Z,9.10
2018-06-09T03:32:05.745Z,8.20
2018-06-09T03:37:08.883Z,8.93
2018-06-09T03:42:11.881Z,9.63
2018-06-09T03:47:14.941Z,8.87
2018-06-09T03:52:17.949Z,9.97
2018-06-09T03:57:20.950Z,9.10
2018-06-09T04:02:23.966Z,10.53
2018-06-09T04:07:27.010Z,9.23
2018-06-09T04:12:30.018Z,9.37
2018-06-09T04:17:33.025Z,9.77
2018-06-09T04:22:36.013Z,9.43
2018-06-09T04:27:39.021Z,9.83
2018-06-09T04:32:42.030Z,9.37
2018-06-09T04:37:45.066Z,10.17
2018-06-09T04:42:48.065Z,10.50
2018-06-09T04:47:51.136Z,10.93
2018-06-09T04:52:54.177Z,11.30
2018-06-09T04:57:57.207Z,10.37
2018-06-09T05:03:00.222Z,10.40
2018-06-09T05:08:03.357Z,9.30
2018-06-09T05:13:06.367Z,10.40
2018-06-09T05:18:09.401Z,11.27
2018-06-09T05:23:12.398Z,9.90
2018-06-09T05:28:15.429Z,11.30
2018-06-09T05:33:18.435Z,9.43
2018-06-09T05:38:21.497Z,9.50
2018-06-09T05:43:24.689Z,9.97
2018-06-09T05:48:27.713Z,10.93
2018-06-09T05:53:30.787Z,10.70
2018-06-09T05:58:33.786Z,11.13
2018-06-09T06:03:36.837Z,10.93
2018-06-09T06:08:39.879Z,10.23
2018-06-09T06:13:43.674Z,10.23
2018-06-09T06:18:46.744Z,11.50
2018-06-09T06:23:49.733Z,10.57
2018-06-09T06:28:52.802Z,10.93
2018-06-09T06:33:55.842Z,10.50
2018-06-09T06:38:58.868Z,10.90
2018-06-09T06:44:01.902Z,9.90
2018-06-09T06:49:05.486Z,10.10
2018-06-09T06:54:08.554Z,11.07
2018-06-09T06:59:11.562Z,10.73
2018-06-09T07:04:14.600Z,10.33
2018-06-09T07:09:17.619Z,12.57
2018-06-09T07:14:20.650Z,11.60
2018-06-09T07:19:23.749Z,11.63
2018-06-09T07:24:26.903Z,11.87
2018-06-09T07:29:30.071Z,11.30
2018-06-09T07:34:33.099Z,11.80
2018-06-09T07:39:39.637Z,11.97
2018-06-09T07:44:42.912Z,11.63
2018-06-09T07:49:46.043Z,12.33
2018-06-09T07:54:49.282Z,12.90
2018-06-09T07:59:52.476Z,11.90
2018-06-09T08:04:55.538Z,11.30
2018-06-09T08:09:58.577Z,11.87
2018-06-09T08:15:01.696Z,12.17
2018-06-09T08:20:04.785Z,12.80
2018-06-09T08:25:07.877Z,12.00
2018-06-09T08:30:10.894Z,11.33
2018-06-09T08:35:13.935Z,12.27
2018-06-09T08:40:16.961Z,12.07
2018-06-09T08:45:20.039Z,12.97
2018-06-09T08:50:23.086Z,12.87
2018-06-09T08:55:26.182Z,13.07
2018-06-09T09:00:29.205Z,12.60
2018-06-09T09:05:32.292Z,12.80
2018-06-09T09:10:35.333Z,12.93
2018-06-09T09:15:38.443Z,12.30
2018-06-09T09:20:41.793Z,12.90
2018-06-09T09:25:45.082Z,12.13
2018-06-09T09:30:48.153Z,12.03
2018-06-09T09:35:51.185Z,10.97
2018-06-09T09:40:54.228Z,10.63
2018-06-09T09:45:57.298Z,11.43
2018-06-09T09:51:00.349Z,10.90
2018-06-09T09:56:03.608Z,11.67
2018-06-09T10:01:06.654Z,10.00
2018-06-09T10:06:09.698Z,10.60
2018-06-09T10:11:12.758Z,10.30
2018-06-09T10:16:15.792Z,11.23
2018-06-09T10:21:18.855Z,9.63
2018-06-09T10:26:21.903Z,10.13
2018-06-09T10:31:24.957Z,9.97
2018-06-09T10:36:28.716Z,9.53
2018-06-09T10:41:31.818Z,9.80
2018-06-09T10:46:34.947Z,10.20
2018-06-09T10:51:38.020Z,9.20
2018-06-09T10:56:41.090Z,7.60
2018-06-09T11:01:44.133Z,7.37
2018-06-09T11:06:47.261Z,6.30
2018-06-09T11:11:50.450Z,5.50
2018-06-09T11:16:53.566Z,5.87
2018-06-09T11:21:56.607Z,5.23
2018-06-09T11:26:59.650Z,5.30
2018-06-09T11:32:02.917Z,6.03
2018-06-09T11:37:06.167Z,4.77
2018-06-09T11:42:09.531Z,4.67
2018-06-09T11:47:12.806Z,4.70
2018-06-09T11:52:16.117Z,5.20
2018-06-09T11:57:19.174Z,4.70
2018-06-09T12:02:22.226Z,3.43
2018-06-09T12:07:25.464Z,3.53
2018-06-09T12:12:28.968Z,3.70
2018-06-09T12:17:32.009Z,4.33
2018-06-09T12:22:35.077Z,4.50
2018-06-09T12:27:38.165Z,4.40
2018-06-09T12:32:41.197Z,4.13
2018-06-09T12:37:44.242Z,3.83
2018-06-09T12:42:47.294Z,4.30
2018-06-09T12:47:50.284Z,4.30
2018-06-09T12:52:53.330Z,4.50
2018-06-09T12:57:56.335Z,4.33
2018-06-09T13:02:59.340Z,4.50
2018-06-09T13:08:02.389Z,4.37
2018-06-09T13:13:05.498Z,4.80
2018-06-09T13:18:08.555Z,4.40
2018-06-09T13:23:11.598Z,3.87
2018-06-09T13:28:14.624Z,3.93
2018-06-09T13:33:17.617Z,4.63
2018-06-09T13:38:20.663Z,4.40
2018-06-09T13:43:24.504Z,4.40
2018-06-09T13:48:28.241Z,4.53
2018-06-09T13:53:31.293Z,4.80
2018-06-09T13:58:34.910Z,5.50
2018-06-09T14:03:38.581Z,5.10
2018-06-09T14:08:42.203Z,4.70
2018-06-09T14:13:45.651Z,4.80
2018-06-09T14:18:49.274Z,5.10
2018-06-09T14:23:52.461Z,5.27
2018-06-09T14:28:56.792Z,4.10
2018-06-09T14:34:00.722Z,4.53
2018-06-09T14:39:06.677Z,5.20
2018-06-09T14:44:09.945Z,4.97
2018-06-09T14:49:12.920Z,4.27
2018-06-09T14:54:15.943Z,4.43
2018-06-09T14:59:19.805Z,4.20
2018-06-09T15:04:22.905Z,5.00
2018-06-09T15:09:25.950Z,4.23
2018-06-09T15:14:29.038Z,4.70
2018-06-09T15:19:32.082Z,4.13
2018-06-09T15:24:35.147Z,4.50
2018-06-09T15:29:38.195Z,5.67
2018-06-09T15:34:41.280Z,4.37
2018-06-09T15:39:44.360Z,4.50
2018-06-09T15:44:47.444Z,4.73
2018-06-09T15:49:50.512Z,4.07
2018-06-09T15:54:53.591Z,4.53
2018-06-09T15:59:57.268Z,5.00
2018-06-09T16:05:00.376Z,4.10
2018-06-09T16:10:04.078Z,4.63
2018-06-09T16:15:07.124Z,4.63
2018-06-09T16:20:10.119Z,4.53
2018-06-09T16:25:13.225Z,4.33
2018-06-09T16:30:16.243Z,5.57
2018-06-09T16:35:19.292Z,5.20
2018-06-09T16:40:22.310Z,4.40
2018-06-09T16:45:25.357Z,4.80
2018-06-09T16:50:28.374Z,4.83
2018-06-09T16:55:31.400Z,4.40
2018-06-09T17:00:34.388Z,4.20
2018-06-09T17:05:37.405Z,4.97
2018-06-09T17:10:40.415Z,4.93
2018-06-09T17:15:43.494Z,4.67
2018-06-09T17:20:46.489Z,4.33
2018-06-09T17:25:49.674Z,4.90
2018-06-09T17:30:53.059Z,5.27
2018-06-09T17:35:56.078Z,5.50
2018-06-09T17:40:59.127Z,4.87
2018-06-09T17:46:02.425Z,5.00
2018-06-09T17:51:05.546Z,4.57
2018-06-09T17:56:08.614Z,4.70
2018-06-09T18:01:11.664Z,4.60
2018-06-09T18:06:15.061Z,4.33
2018-06-09T18:11:18.105Z,4.30
2018-06-09T18:16:21.202Z,5.13
2018-06-09T18:21:24.232Z,5.97
2018-06-09T18:26:27.350Z,5.40
2018-06-09T18:31:30.305Z,5.63
2018-06-09T18:36:33.334Z,5.30
2018-06-09T18:41:36.529Z,6.27
2018-06-09T18:46:39.562Z,6.00
2018-06-09T18:51:42.650Z,5.57
2018-06-09T18:56:45.730Z,6.33
2018-06-09T19:01:48.689Z,5.60
2018-06-09T19:06:52.126Z,7.90
2018-06-09T19:11:55.145Z,6.97
2018-06-09T19:16:58.213Z,6.30
2018-06-09T19:22:01.334Z,6.00
2018-06-09T19:27:04.353Z,7.43
2018-06-09T19:32:07.403Z,6.90
2018-06-09T19:37:10.509Z,6.87
2018-06-09T19:42:13.521Z,7.97
2018-06-09T19:47:16.493Z,7.50
2018-06-09T19:52:19.503Z,7.00
2018-06-09T19:57:22.553Z,8.00
2018-06-09T20:02:25.682Z,7.20
2018-06-09T20:07:28.868Z,7.67
2018-06-09T20:12:32.002Z,7.10
2018-06-09T20:17:35.130Z,7.10
2018-06-09T20:22:38.176Z,7.03
2018-06-09T20:27:41.205Z,7.40
2018-06-09T20:32:44.278Z,7.90
2018-06-09T20:37:47.482Z,6.73
2018-06-09T20:42:50.655Z,6.83
2018-06-09T20:47:53.774Z,6.63
2018-06-09T20:52:56.805Z,7.07
2018-06-09T20:57:59.894Z,7.13
2018-06-09T21:03:03.095Z,7.13
2018-06-09T21:08:06.170Z,7.67
2018-06-09T21:13:09.298Z,7.07
2018-06-09T21:18:12.340Z,6.00
2018-06-09T21:23:15.409Z,7.70
2018-06-09T21:28:26.902Z,7.20
2018-06-09T21:33:52.994Z,6.40
2018-06-09T21:38:59.360Z,7.23
2018-06-09T21:44:08.166Z,7.10
2018-06-09T21:49:11.615Z,7.60
2018-06-09T21:54:14.653Z,7.93
2018-06-09T21:59:17.670Z,7.57
2018-06-09T22:04:22.728Z,8.13
2018-06-09T22:09:25.737Z,7.87
2018-06-09T22:14:28.844Z,7.20
2018-06-09T22:19:31.910Z,7.83
2018-06-09T22:24:34.973Z,8.37
2018-06-09T22:29:38.050Z,7.90
2018-06-09T22:34:41.059Z,7.80
2018-06-09T22:39:44.078Z,7.07
2018-06-09T22:44:47.049Z,8.10
2018-06-09T22:49:50.130Z,8.10
2018-06-09T22:54:53.246Z,9.20
2018-06-09T22:59:56.317Z,9.63
2018-06-09T23:04:59.478Z,9.97
2018-06-09T23:10:02.683Z,10.20
2018-06-09T23:15:05.760Z,9.63
2018-06-09T23:20:08.757Z,12.33
2018-06-09T23:25:11.849Z,11.90
2018-06-09T23:30:14.874Z,12.40
2018-06-09T23:35:17.888Z,12.37
2018-06-09T23:40:21.007Z,14.80
2018-06-09T23:45:24.102Z,13.87
2018-06-09T23:50:27.455Z,15.03
2018-06-09T23:55:30.505Z,16.03
